Time;durP1;ratioP1;P1;durP2;ratioP2;P2;SDS_P1;SDS_P2;PMS_P1;PMS_P2;Temp;Humidity;BMP_temperature;BMP_pressure;BME280_temperature;BME280_humidity;BME280_pressure;Samples;Min_cycle;Max_cycle;Signal;HPM_P1;HPM_P2
2021/05/18 00:00:56;;;;;;;1.23;0.30;;;;;;;11.10;65.88;98652.19;5006908;28;20233;-80
2021/05/18 00:03:23;;;;;;;1.53;0.10;;;;;;;11.11;65.74;98642.22;5007656;28;20227;-80
2021/05/18 00:05:53;;;;;;;0.20;0.10;;;;;;;11.03;65.88;98651.53;5007024;28;20229;-81
2021/05/18 00:08:23;;;;;;;0.63;0.20;;;;;;;10.95;66.31;98650.06;5023784;28;20254;-82
2021/05/18 00:13:48;;;;;;;0.37;0.30;;;;;;;11.12;65.00;98643.88;5009850;28;20231;-81
2021/05/18 00:16:16;;;;;;;0.20;0.20;;;;;;;11.15;65.33;98664.84;4975036;28;20218;-80
2021/05/18 00:18:43;;;;;;;0.37;0.20;;;;;;;10.95;65.64;98649.25;5024207;28;20230;-80
2021/05/18 00:21:10;;;;;;;0.10;0.10;;;;;;;11.13;65.36;98664.25;5023295;28;20662;-80
2021/05/18 00:23:41;;;;;;;1.10;0.20;;;;;;;11.14;64.83;98647.13;5007142;28;20226;-82
2021/05/18 00:26:09;;;;;;;0.23;0.20;;;;;;;11.13;65.24;98673.13;5006062;28;20241;-81
2021/05/18 00:28:36;;;;;;;0.63;0.10;;;;;;;11.10;65.33;98659.41;5024189;28;20535;-80
2021/05/18 00:31:03;;;;;;;1.03;0.20;;;;;;;11.10;65.17;98662.09;5008212;28;20223;-81
2021/05/18 00:33:30;;;;;;;0.40;0.20;;;;;;;11.07;65.18;98658.00;5025655;28;20238;-82
2021/05/18 00:35:58;;;;;;;1.20;0.20;;;;;;;11.14;65.00;98666.72;5024121;28;20235;-80
2021/05/18 00:38:26;;;;;;;0.70;0.20;;;;;;;11.08;65.68;98677.59;5007455;28;20231;-82
2021/05/18 00:40:54;;;;;;;1.40;0.30;;;;;;;11.11;65.64;98688.63;5006660;28;20226;-82
2021/05/18 00:43:22;;;;;;;0.53;0.20;;;;;;;10.89;66.35;98659.09;5006624;28;20219;-81
2021/05/18 00:45:51;;;;;;;0.30;0.20;;;;;;;10.99;66.19;98677.19;5024942;28;20240;-81
2021/05/18 00:48:23;;;;;;;0.63;0.20;;;;;;;11.14;65.84;98682.78;4990801;28;20277;-81
2021/05/18 00:50:59;;;;;;;0.20;0.20;;;;;;;10.83;66.76;98659.25;5008242;28;20229;-80
2021/05/18 00:53:30;;;;;;;0.40;0.23;;;;;;;10.86;66.95;98680.22;5008815;28;20294;-80
2021/05/18 00:56:19;;;;;;;0.40;0.20;;;;;;;10.84;66.96;98688.47;5008792;28;20242;-80
2021/05/18 00:58:55;;;;;;;0.20;0.20;;;;;;;10.84;67.24;98687.66;4992081;28;20242;-80
2021/05/18 01:01:22;;;;;;;0.40;0.30;;;;;;;10.80;67.73;98675.81;5024295;28;20277;-81
2021/05/18 01:03:54;;;;;;;2.10;0.40;;;;;;;10.87;67.32;98677.25;5024701;28;20231;-82
2021/05/18 01:06:30;;;;;;;0.20;0.20;;;;;;;10.86;67.70;98681.03;5024840;28;20280;-81
2021/05/18 01:09:09;;;;;;;0.73;0.30;;;;;;;10.88;67.71;98692.28;4992822;28;20567;-81
2021/05/18 01:11:41;;;;;;;1.30;0.20;;;;;;;10.58;68.55;98671.19;5009377;28;20647;-81
2021/05/18 01:14:14;;;;;;;0.37;0.20;;;;;;;10.74;68.63;98682.13;5007759;28;20231;-80
2021/05/18 01:16:44;;;;;;;0.30;0.30;;;;;;;10.87;68.15;98684.53;5009440;28;20235;-82
2021/05/18 01:19:13;;;;;;;0.87;0.40;;;;;;;10.65;68.83;98670.19;5026059;28;20646;-81
2021/05/18 01:21:42;;;;;;;0.53;0.33;;;;;;;10.73;68.96;98689.38;5022878;28;20595;-80
2021/05/18 01:24:09;;;;;;;1.47;0.43;;;;;;;10.83;68.66;98686.84;5008933;28;20521;-80
2021/05/18 01:26:38;;;;;;;2.20;0.37;;;;;;;10.83;68.82;98692.22;5008300;28;20223;-80
2021/05/18 01:29:09;;;;;;;1.20;0.40;;;;;;;10.71;69.13;98680.78;5008735;28;20258;-80
2021/05/18 01:31:43;;;;;;;0.33;0.30;;;;;;;10.58;70.03;98697.16;5025205;28;20231;-82
2021/05/18 01:34:10;;;;;;;0.83;0.40;;;;;;;10.54;70.60;98706.75;5024881;28;20231;-81
2021/05/18 01:36:42;;;;;;;0.87;0.40;;;;;;;10.46;71.08;98702.56;5010765;28;20211;-82
2021/05/18 01:44:36;;;;;;;0.60;0.30;;;;;;;10.37;71.14;98689.81;5010822;28;20253;-80
2021/05/18 01:47:06;;;;;;;0.33;0.33;;;;;;;10.46;70.58;98709.78;5023241;28;20337;-81
2021/05/18 01:49:41;;;;;;;1.17;0.30;;;;;;;10.22;71.65;98700.28;4992596;28;20222;-83
2021/05/18 01:52:09;;;;;;;0.80;0.40;;;;;;;10.48;71.17;98721.91;5008651;28;20254;-82
2021/05/18 01:54:37;;;;;;;0.50;0.50;;;;;;;10.31;71.45;98702.28;5006641;28;20253;-81
2021/05/18 01:57:21;;;;;;;0.80;0.50;;;;;;;10.58;70.59;98714.06;5022836;28;20234;-81
2021/05/18 02:00:08;;;;;;;1.10;0.50;;;;;;;10.68;70.36;98729.50;4995024;28;20226;-81
2021/05/18 02:02:40;;;;;;;0.50;0.50;;;;;;;10.58;70.27;98719.41;4992378;28;20227;-80
2021/05/18 02:05:13;;;;;;;0.30;0.30;;;;;;;10.49;71.01;98723.53;5007310;28;20227;-80
2021/05/18 02:07:47;;;;;;;2.37;0.53;;;;;;;10.46;71.09;98715.16;5024919;28;20280;-82
2021/05/18 02:10:19;;;;;;;0.93;0.40;;;;;;;10.48;71.04;98721.91;5004229;28;20335;-83
2021/05/18 02:13:07;;;;;;;0.30;0.30;;;;;;;10.47;70.80;98732.84;5007496;28;20255;-83
2021/05/18 02:15:47;;;;;;;1.13;0.50;;;;;;;10.43;71.23;98740.56;4999957;28;20233;-81
2021/05/18 02:26:55;;;;;;;0.80;0.50;;;;;;;10.37;71.74;98752.22;5023205;28;20241;-80
2021/05/18 02:29:23;;;;;;;0.83;0.50;;;;;;;10.37;71.41;98744.19;5008829;28;20237;-82
2021/05/18 02:31:55;;;;;;;0.47;0.30;;;;;;;10.53;70.90;98745.28;5024878;28;20250;-81
2021/05/18 02:34:34;;;;;;;0.50;0.40;;;;;;;10.54;70.46;98745.03;5025070;28;20257;-82
2021/05/18 02:37:03;;;;;;;0.40;0.40;;;;;;;10.72;69.95;98748.56;5044501;28;20225;-80
2021/05/18 02:39:30;;;;;;;1.33;0.40;;;;;;;10.68;70.32;98750.09;5043046;28;20234;-82
2021/05/18 02:41:59;;;;;;;0.90;0.40;;;;;;;10.77;69.57;98752.16;5014615;28;20222;-81
2021/05/18 02:44:37;;;;;;;0.57;0.50;;;;;;;10.80;69.96;98757.00;5031129;28;20579;-80
2021/05/18 02:50:01;;;;;;;0.53;0.47;;;;;;;11.02;69.30;98768.63;5030569;28;20313;-80
2021/05/18 02:52:31;;;;;;;0.67;0.40;;;;;;;11.15;68.66;98759.44;5030312;28;20625;-82
2021/05/18 02:54:58;;;;;;;1.90;0.60;;;;;;;11.28;68.19;98761.00;5031468;28;20194;-82
2021/05/18 02:57:37;;;;;;;2.10;0.60;;;;;;;11.25;68.60;98777.56;5031663;28;20309;-81
2021/05/18 03:00:11;;;;;;;0.90;0.50;;;;;;;11.22;68.74;98770.84;5045191;28;20226;-81
2021/05/18 03:02:38;;;;;;;3.20;0.60;;;;;;;11.43;67.75;98775.44;5001663;23;20230;-81
2021/05/18 03:05:08;;;;;;;2.10;0.60;;;;;;;11.38;67.81;98769.22;4991354;28;20298;-80
2021/05/18 03:07:35;;;;;;;2.00;0.50;;;;;;;11.41;67.35;98764.16;4989746;28;20243;-80
2021/05/18 03:10:05;;;;;;;2.30;0.60;;;;;;;11.38;67.71;98774.59;5004875;28;20232;-82
2021/05/18 03:12:32;;;;;;;0.83;0.50;;;;;;;11.71;66.26;98771.03;5027745;28;20250;-81
2021/05/18 03:15:00;;;;;;;2.10;0.53;;;;;;;11.76;65.68;98774.59;5026977;28;20226;-83
2021/05/18 03:17:30;;;;;;;1.07;0.50;;;;;;;11.74;65.46;98766.00;5028898;28;20554;-80
2021/05/18 03:20:06;;;;;;;0.87;0.50;;;;;;;11.86;64.86;98758.66;5040191;28;20250;-80
2021/05/18 03:22:34;;;;;;;4.00;0.43;;;;;;;11.81;65.29;98787.28;5026140;28;20230;-82
2021/05/18 03:25:02;;;;;;;1.23;0.40;;;;;;;11.73;66.32;98769.75;5027554;28;20540;-81
2021/05/18 03:27:30;;;;;;;0.90;0.40;;;;;;;11.81;66.14;98772.00;5026451;28;20281;-81
2021/05/18 03:30:00;;;;;;;0.60;0.53;;;;;;;11.97;65.02;98774.88;5026664;28;20313;-81
2021/05/18 03:35:12;;;;;;;1.03;0.40;;;;;;;11.79;66.06;98778.69;5040451;28;20298;-82
2021/05/18 03:37:53;;;;;;;1.40;0.50;;;;;;;11.89;65.31;98781.50;5042669;28;20231;-81
2021/05/18 03:40:25;;;;;;;2.77;0.40;;;;;;;11.79;65.72;98766.09;5026852;28;20234;-80
2021/05/18 03:42:59;;;;;;;1.10;0.50;;;;;;;11.80;65.57;98766.91;5042466;28;20218;-81
2021/05/18 03:45:30;;;;;;;1.53;0.60;;;;;;;11.85;65.11;98766.97;5042260;28;20241;-80
2021/05/18 03:58:57;;;;;;;0.40;0.40;;;;;;;12.12;64.26;98773.22;5007744;28;20249;-81
2021/05/18 04:04:19;;;;;;;1.10;0.40;;;;;;;12.21;64.25;98782.47;5007610;28;20258;-81
2021/05/18 04:18:07;;;;;;;1.07;0.40;;;;;;;12.58;62.72;98805.97;5037689;28;20226;-80
2021/05/18 04:20:42;;;;;;;1.57;0.57;;;;;;;12.57;62.68;98812.41;5024514;28;20265;-82
2021/05/18 04:53:31;;;;;;;1.23;0.50;;;;;;;13.51;59.85;98856.63;5035428;28;20232;-82
2021/05/18 05:02:48;;;;;;;1.43;0.33;;;;;;;13.86;58.10;98828.31;5027792;28;20253;-79
2021/05/18 05:04:16;;;;;;;0.67;0.50;;;;;;;13.87;58.45;98841.53;5031301;28;20238;-80
2021/05/18 05:07:06;;;;;;;3.00;0.50;;;;;;;13.97;58.47;98844.31;5029549;28;20231;-80
2021/05/18 05:09:40;;;;;;;2.33;0.50;;;;;;;14.15;57.89;98851.13;4991475;28;20229;-80
2021/05/18 05:14:52;;;;;;;0.53;0.40;;;;;;;14.27;57.44;98848.25;4992732;28;20220;-80
2021/05/18 05:17:19;;;;;;;0.77;0.40;;;;;;;14.38;57.47;98839.97;4973519;28;20239;-79
2021/05/18 05:19:49;;;;;;;1.60;0.53;;;;;;;14.42;57.00;98838.34;5033689;23;20231;-81
2021/05/18 05:22:18;;;;;;;0.97;0.40;;;;;;;14.53;56.92;98839.22;4975332;28;20232;-79
2021/05/18 05:24:48;;;;;;;0.87;0.40;;;;;;;14.46;56.68;98841.34;4986842;28;20256;-82
2021/05/18 05:27:16;;;;;;;0.53;0.40;;;;;;;14.39;56.50;98838.88;4986521;28;20280;-82
2021/05/18 05:30:00;;;;;;;1.30;0.30;;;;;;;14.49;56.25;98836.25;4968953;28;20323;-80
2021/05/18 05:32:27;;;;;;;1.33;0.50;;;;;;;14.50;55.55;98848.66;4985952;28;20243;-80
2021/05/18 05:34:54;;;;;;;0.67;0.40;;;;;;;14.44;56.45;98830.81;5005832;28;20249;-80
2021/05/18 05:37:25;;;;;;;0.90;0.40;;;;;;;14.63;55.95;98846.53;5027883;28;20215;-80
2021/05/18 05:39:53;;;;;;;0.37;0.37;;;;;;;14.63;56.10;98850.03;4994176;28;20254;-80
2021/05/18 05:42:24;;;;;;;0.77;0.40;;;;;;;14.73;55.64;98850.06;5030596;28;20212;-80
2021/05/18 05:44:55;;;;;;;0.70;0.40;;;;;;;14.83;55.54;98849.28;5030271;28;20219;-80
2021/05/18 05:47:27;;;;;;;0.70;0.40;;;;;;;14.89;55.67;98856.31;5029343;28;20235;-80
2021/05/18 05:50:00;;;;;;;0.40;0.40;;;;;;;15.10;55.38;98857.16;5024824;28;20243;-81
2021/05/18 05:52:33;;;;;;;0.77;0.40;;;;;;;15.08;54.24;98857.41;5003188;28;20529;-80
2021/05/18 05:55:02;;;;;;;0.50;0.40;;;;;;;14.96;54.57;98832.59;5012029;28;20228;-81
2021/05/18 05:57:31;;;;;;;0.60;0.40;;;;;;;15.14;54.59;98842.88;5026600;28;20232;-79
2021/05/18 06:00:01;;;;;;;1.33;0.30;;;;;;;15.19;54.72;98845.56;5035863;23;20235;-83
2021/05/18 06:02:34;;;;;;;1.33;0.37;;;;;;;15.31;54.65;98842.59;5018232;28;20224;-84
2021/05/18 06:05:01;;;;;;;0.50;0.30;;;;;;;15.39;53.51;98860.97;4998122;28;20223;-86
2021/05/18 06:07:28;;;;;;;1.40;0.50;;;;;;;15.41;54.34;98850.72;4998913;28;20233;-84
2021/05/18 06:10:00;;;;;;;3.13;0.50;;;;;;;15.49;53.50;98847.47;4996960;28;20236;-83
2021/05/18 06:12:39;;;;;;;0.37;0.30;;;;;;;15.67;52.81;98859.66;5017620;28;20226;-83
2021/05/18 06:43:00;;;;;;;0.93;0.47;;;;;;;16.30;50.78;98906.84;5013843;28;20618;-88
2021/05/18 06:48:32;;;;;;;0.60;0.30;;;;;;;16.57;48.87;98922.69;4911167;29;20551;-85
2021/05/18 06:50:59;;;;;;;0.70;0.30;;;;;;;16.30;49.55;98904.94;4933081;29;20596;-90
2021/05/18 06:53:26;;;;;;;2.53;0.40;;;;;;;16.41;50.06;98924.66;4982798;28;20248;-85
2021/05/18 06:55:54;;;;;;;1.17;0.40;;;;;;;16.32;49.20;98917.38;5013228;28;20269;-85
2021/05/18 07:01:07;;;;;;;1.10;0.40;;;;;;;16.64;49.41;98917.84;4967706;28;20226;-88
2021/05/18 07:03:53;;;;;;;2.20;0.60;;;;;;;16.84;49.13;98920.50;4943271;28;20576;-83
2021/05/18 07:09:27;;;;;;;0.43;0.33;;;;;;;16.87;48.55;98922.63;4928657;29;20268;-79
2021/05/18 07:11:56;;;;;;;1.07;0.30;;;;;;;16.88;47.45;98920.75;4925296;29;20343;-79
2021/05/18 07:14:23;;;;;;;1.17;0.30;;;;;;;17.08;47.06;98917.91;4955317;28;20585;-83
2021/05/18 07:16:51;;;;;;;0.63;0.30;;;;;;;17.28;47.67;98927.81;5017359;28;20238;-81
2021/05/18 07:19:19;;;;;;;1.27;0.40;;;;;;;17.49;46.57;98932.84;4999448;28;20230;-80
2021/05/18 07:21:46;;;;;;;1.93;0.70;;;;;;;17.67;45.18;98934.09;4996803;28;20223;-83
2021/05/18 07:24:19;;;;;;;1.53;0.40;;;;;;;17.52;46.04;98929.56;4980397;28;20242;-83
2021/05/18 07:26:46;;;;;;;1.37;0.50;;;;;;;17.50;46.33;98937.16;4998462;28;20277;-85
2021/05/18 07:29:13;;;;;;;0.77;0.30;;;;;;;17.82;45.44;98938.59;4984618;28;20240;-80
2021/05/18 07:31:40;;;;;;;0.97;0.40;;;;;;;18.11;44.72;98938.59;4985786;28;20297;-80
2021/05/18 07:34:07;;;;;;;0.77;0.40;;;;;;;17.87;45.35;98946.69;4980741;28;20262;-80
2021/05/18 07:36:33;;;;;;;0.30;0.30;;;;;;;17.86;45.79;98947.78;5014203;28;20227;-80
2021/05/18 07:39:01;;;;;;;0.97;0.30;;;;;;;17.88;45.87;98938.25;5017641;28;20666;-82
2021/05/18 07:41:28;;;;;;;1.67;0.50;;;;;;;17.97;46.38;98935.75;4983933;28;20677;-81
2021/05/18 07:43:55;;;;;;;2.57;0.50;;;;;;;18.40;45.57;98952.97;4998446;28;20235;-80
2021/05/18 07:46:23;;;;;;;2.60;0.50;;;;;;;18.86;44.39;98953.28;4993484;28;20231;-82
2021/05/18 07:59:35;;;;;;;1.00;0.60;;;;;;;18.84;44.40;98944.66;4972185;28;20234;-86
2021/05/18 08:02:23;;;;;;;0.77;0.40;;;;;;;18.30;45.09;98953.88;4998045;28;20245;-83
2021/05/18 08:07:37;;;;;;;1.10;0.47;;;;;;;17.64;46.79;98953.59;4986139;28;20227;-81
2021/05/18 08:12:32;;;;;;;0.50;0.50;;;;;;;18.04;45.58;98949.78;5019308;28;20230;-86
2021/05/18 08:15:20;;;;;;;1.63;0.37;;;;;;;17.67;46.34;98933.28;5018776;28;20237;-80
2021/05/18 08:46:39;;;;;;;3.30;0.60;;;;;;;18.12;46.46;98975.47;5018868;28;20574;-79
2021/05/18 09:37:54;;;;;;;0.80;0.50;;;;;;;19.91;40.02;98965.72;5034635;28;20293;-85
2021/05/18 09:48:50;;;;;;;2.33;0.50;;;;;;;19.12;39.77;98968.19;5024567;28;20633;-81
2021/05/18 10:36:14;;;;;;;0.87;0.40;;;;;;;20.89;37.98;98986.31;5014599;28;20639;-80
2021/05/18 10:38:47;;;;;;;0.40;0.40;;;;;;;21.27;37.40;98978.75;4998354;28;20232;-82
2021/05/18 10:41:23;;;;;;;0.40;0.40;;;;;;;21.37;36.12;98973.09;4982500;28;20285;-81
2021/05/18 10:44:01;;;;;;;0.63;0.30;;;;;;;21.19;35.61;98987.63;4969929;28;20615;-80
2021/05/18 10:46:33;;;;;;;0.40;0.40;;;;;;;20.97;36.42;98988.31;4977898;28;20239;-80
2021/05/18 10:49:10;;;;;;;1.13;0.30;;;;;;;21.36;35.78;98975.00;4988067;28;20281;-83
2021/05/18 10:51:53;;;;;;;1.60;0.30;;;;;;;21.30;36.00;98987.13;4980954;28;20563;-81
2021/05/18 10:54:26;;;;;;;1.20;0.40;;;;;;;21.06;37.26;99024.63;4996416;28;20235;-80
2021/05/18 10:56:52;;;;;;;0.60;0.40;;;;;;;20.56;40.07;99010.88;4997228;28;20503;-84
2021/05/18 10:59:23;;;;;;;0.70;0.50;;;;;;;19.70;42.96;99025.81;5003564;28;20698;-81
2021/05/18 11:02:00;;;;;;;1.17;0.50;;;;;;;18.07;47.61;99016.97;5018456;28;20226;-80
2021/05/18 11:04:29;;;;;;;1.50;0.60;;;;;;;17.47;49.80;99008.13;5016408;28;20273;-81
2021/05/18 11:06:57;;;;;;;1.03;0.60;;;;;;;17.40;50.14;99018.47;5000980;28;20242;-80
2021/05/18 11:09:26;;;;;;;1.77;0.60;;;;;;;17.28;50.87;99007.16;5004624;28;20240;-83
2021/05/18 11:12:04;;;;;;;1.07;0.70;;;;;;;17.47;49.58;99005.44;5020962;28;20226;-81
2021/05/18 11:14:33;;;;;;;1.37;1.03;;;;;;;17.25;50.67;98999.59;5003650;28;20257;-80
2021/05/18 11:17:12;;;;;;;2.50;0.60;;;;;;;17.48;51.22;99017.06;5000162;28;20319;-82
2021/05/18 11:20:04;;;;;;;0.80;0.70;;;;;;;16.94;53.40;99009.72;5021944;28;20236;-84
2021/05/18 11:25:46;;;;;;;0.87;0.60;;;;;;;17.34;53.16;99003.34;5024517;28;20234;-83
2021/05/18 11:28:17;;;;;;;1.87;0.70;;;;;;;17.92;52.27;99009.75;5019624;28;20233;-82
2021/05/18 11:30:47;;;;;;;1.03;0.70;;;;;;;17.46;53.54;99001.09;5037653;28;20233;-83
2021/05/18 11:33:14;;;;;;;0.60;0.60;;;;;;;17.46;53.40;98998.38;5037432;28;20222;-82
2021/05/18 11:35:41;;;;;;;3.33;0.67;;;;;;;17.94;52.07;99007.59;4997206;28;20504;-83
2021/05/18 11:38:14;;;;;;;2.10;0.80;;;;;;;17.81;52.19;98991.16;4996956;28;20387;-85
2021/05/18 11:40:44;;;;;;;1.23;0.70;;;;;;;18.27;50.34;98991.59;5005933;28;20227;-80
2021/05/18 11:43:13;;;;;;;0.83;0.63;;;;;;;18.41;50.82;98995.28;4965203;28;20228;-83
2021/05/18 11:45:40;;;;;;;2.17;0.70;;;;;;;18.83;49.53;98979.13;4997685;28;20281;-84
2021/05/18 11:48:19;;;;;;;2.00;0.70;;;;;;;18.97;48.90;98989.28;4967631;28;20263;-84
2021/05/18 11:51:00;;;;;;;1.07;0.60;;;;;;;18.90;48.73;98982.28;5017055;28;20222;-83
2021/05/18 11:53:38;;;;;;;0.57;0.57;;;;;;;19.04;48.13;98978.84;5019768;28;20222;-84
2021/05/18 11:56:16;;;;;;;0.77;0.47;;;;;;;19.28;46.13;98974.22;5035518;28;20234;-82
2021/05/18 11:58:43;;;;;;;1.93;0.50;;;;;;;19.27;46.58;98972.63;5019848;28;20252;-84
2021/05/18 12:01:10;;;;;;;1.37;0.50;;;;;;;19.84;44.80;98968.81;5003441;28;20559;-85
2021/05/18 12:03:37;;;;;;;1.17;0.50;;;;;;;20.28;41.76;98964.81;5036028;28;20296;-84
2021/05/18 12:06:06;;;;;;;0.60;0.43;;;;;;;20.34;42.22;98967.19;5018568;28;20590;-83
2021/05/18 12:08:37;;;;;;;0.77;0.40;;;;;;;20.17;40.93;98965.00;4983885;28;20606;-84
2021/05/18 12:11:24;;;;;;;0.47;0.30;;;;;;;20.92;39.24;98966.63;5021803;28;20227;-81
2021/05/18 12:13:53;;;;;;;0.93;0.33;;;;;;;21.40;37.60;98967.00;5034593;28;20223;-84
2021/05/18 12:16:24;;;;;;;0.37;0.20;;;;;;;21.59;36.14;98959.50;5003355;28;20646;-84
2021/05/18 12:19:00;;;;;;;0.90;0.40;;;;;;;21.45;35.29;98970.44;4979982;28;20233;-85
2021/05/18 12:21:29;;;;;;;2.60;0.40;;;;;;;21.60;34.19;98974.75;5016824;28;20233;-84
2021/05/18 12:24:07;;;;;;;1.10;0.30;;;;;;;22.00;33.36;98978.44;4981863;28;20313;-85
2021/05/18 12:26:45;;;;;;;1.53;0.30;;;;;;;21.98;33.74;98991.56;5033125;28;20222;-81
2021/05/18 12:29:36;;;;;;;0.57;0.50;;;;;;;22.08;33.86;98990.53;4982598;28;20238;-82
2021/05/18 12:32:26;;;;;;;0.30;0.30;;;;;;;20.98;35.12;98998.91;4979884;28;20254;-81
2021/05/18 12:34:54;;;;;;;1.10;0.20;;;;;;;20.56;36.13;98988.28;4986696;28;20315;-80
2021/05/18 12:37:33;;;;;;;0.30;0.30;;;;;;;20.48;36.53;98989.78;5018839;28;20228;-80
2021/05/18 12:40:04;;;;;;;0.60;0.40;;;;;;;20.51;37.00;98993.81;5018734;28;20247;-83
2021/05/18 12:42:31;;;;;;;1.40;0.30;;;;;;;20.61;38.07;98993.66;5034956;28;20230;-82
2021/05/18 12:45:01;;;;;;;1.17;0.30;;;;;;;20.63;39.80;99007.75;4994610;28;20230;-83
2021/05/18 12:47:37;;;;;;;0.70;0.37;;;;;;;19.81;41.86;98985.72;4985474;28;20221;-81
2021/05/18 12:50:15;;;;;;;0.40;0.40;;;;;;;19.82;42.50;98989.25;5000849;28;20244;-82
2021/05/18 12:52:52;;;;;;;0.20;0.20;;;;;;;19.88;40.71;98988.84;4988094;28;20225;-84
2021/05/18 12:55:25;;;;;;;1.27;0.30;;;;;;;19.71;41.58;98994.03;5005940;28;20223;-82
2021/05/18 12:57:52;;;;;;;1.30;0.30;;;;;;;19.97;40.55;98989.78;4981287;28;20232;-84
2021/05/18 13:00:29;;;;;;;1.33;0.40;;;;;;;20.22;40.19;98991.31;5008794;28;20317;-83
2021/05/18 13:03:19;;;;;;;1.80;0.40;;;;;;;20.27;39.14;98985.78;4986064;28;20646;-81
2021/05/18 13:05:54;;;;;;;0.50;0.47;;;;;;;20.24;37.17;98980.94;4980697;28;20220;-83
2021/05/18 13:08:23;;;;;;;0.93;0.40;;;;;;;20.23;36.39;98976.59;4963877;28;20718;-82
2021/05/18 13:13:54;;;;;;;0.60;0.47;;;;;;;21.16;33.36;98986.31;4987732;28;20221;-83
2021/05/18 13:16:25;;;;;;;0.57;0.27;;;;;;;21.44;33.06;98978.91;5004959;28;20238;-85
2021/05/18 13:18:59;;;;;;;0.97;0.40;;;;;;;21.80;33.77;98973.44;5009998;28;20229;-84
2021/05/18 13:21:44;;;;;;;0.30;0.20;;;;;;;21.76;34.89;98967.81;4994745;28;20226;-83
2021/05/18 13:26:57;;;;;;;0.43;0.30;;;;;;;21.84;34.02;98945.25;5004673;28;20229;-84
2021/05/18 13:29:24;;;;;;;0.70;0.33;;;;;;;21.88;33.54;98959.09;4986625;28;20230;-82
2021/05/18 13:31:54;;;;;;;1.10;0.30;;;;;;;22.33;33.50;98968.06;4990778;28;20601;-84
2021/05/18 13:34:40;;;;;;;0.20;0.20;;;;;;;22.69;32.06;98949.63;5020056;28;20305;-81
2021/05/18 13:37:07;;;;;;;0.23;0.20;;;;;;;23.39;30.58;98951.44;5034091;28;20230;-82
2021/05/18 13:39:34;;;;;;;0.20;0.20;;;;;;;24.47;29.63;98937.53;5017683;28;20231;-80
2021/05/18 13:42:02;;;;;;;0.57;0.37;;;;;;;25.53;27.11;98938.25;5016977;28;20224;-80
2021/05/18 13:44:29;;;;;;;0.57;0.30;;;;;;;28.12;23.92;98928.41;4993870;28;20235;-82
2021/05/18 13:46:57;;;;;;;0.40;0.30;;;;;;;30.05;21.60;98949.16;4991177;28;20219;-80
2021/05/18 13:49:24;;;;;;;0.95;0.30;;;;;;;31.56;19.81;98950.16;5004443;28;20236;-80
2021/05/18 13:51:51;;;;;;;0.40;0.30;;;;;;;31.99;18.92;98947.91;4996922;28;20310;-81
2021/05/18 13:54:36;;;;;;;1.65;0.30;;;;;;;30.78;20.16;98935.09;4983772;28;20233;-81
2021/05/18 13:57:03;;;;;;;0.30;0.30;;;;;;;29.63;20.85;98933.28;4989910;28;20686;-80
2021/05/18 13:59:29;;;;;;;0.63;0.30;;;;;;;31.54;19.53;98935.88;4970420;28;20529;-80
2021/05/18 14:01:57;;;;;;;0.30;0.30;;;;;;;33.03;17.82;98934.72;4989084;28;20222;-81
2021/05/18 14:04:24;;;;;;;1.45;0.30;;;;;;;33.25;17.33;98925.38;4975001;28;20557;-81
2021/05/18 14:07:32;;;;;;;0.30;0.30;;;;;;;30.74;20.14;98925.97;4993805;28;20229;-81
2021/05/18 14:10:04;;;;;;;0.68;0.35;;;;;;;29.63;20.56;98918.69;4996827;28;20546;-82
2021/05/18 14:12:31;;;;;;;1.50;0.32;;;;;;;28.31;22.21;98923.00;5007642;28;20269;-80
2021/05/18 14:14:58;;;;;;;0.47;0.30;;;;;;;28.56;22.13;98920.06;5017117;28;20237;-81
2021/05/18 14:17:25;;;;;;;0.80;0.40;;;;;;;29.92;20.56;98920.88;5033553;28;20672;-81
2021/05/18 14:19:52;;;;;;;1.10;0.40;;;;;;;29.27;20.36;98937.19;5016079;28;20658;-81
2021/05/18 14:22:19;;;;;;;0.45;0.45;;;;;;;28.80;21.65;98936.47;5024167;28;20510;-79
2021/05/18 14:27:20;;;;;;;0.38;0.30;;;;;;;26.13;25.16;98939.72;5033393;28;20228;-80
2021/05/18 14:29:48;;;;;;;0.30;0.20;;;;;;;25.68;26.62;98931.41;5033419;28;20289;-82
2021/05/18 14:32:15;;;;;;;1.15;0.40;;;;;;;25.54;26.38;98923.44;5006583;28;20529;-80
2021/05/18 14:34:42;;;;;;;0.25;0.25;;;;;;;24.65;26.93;98937.47;4990328;28;20235;-81
2021/05/18 14:37:09;;;;;;;1.13;0.20;;;;;;;24.88;27.76;98939.66;4970478;28;20273;-82
2021/05/18 14:40:05;;;;;;;0.65;0.30;;;;;;;24.83;27.40;98937.06;5020821;28;20688;-80
2021/05/18 14:45:11;;;;;;;0.32;0.32;;;;;;;23.63;28.73;98940.88;5024906;28;20227;-82
2021/05/18 14:55:54;;;;;;;0.30;0.30;;;;;;;21.49;32.66;98965.19;5022444;28;20263;-81
2021/05/18 14:58:21;;;;;;;0.80;0.30;;;;;;;21.57;32.77;98959.00;5002859;28;20241;-81
2021/05/18 15:00:48;;;;;;;0.90;0.27;;;;;;;21.57;32.88;98961.72;4984543;28;20619;-83
2021/05/18 15:03:15;;;;;;;0.50;0.30;;;;;;;21.29;33.53;98955.53;5011971;28;20235;-81
2021/05/18 15:05:41;;;;;;;2.87;0.40;;;;;;;21.35;32.54;98934.44;5003364;28;20517;-80
2021/05/18 15:08:09;;;;;;;0.33;0.30;;;;;;;21.34;31.95;98947.25;5015445;28;20227;-80
2021/05/18 15:10:46;;;;;;;0.30;0.20;;;;;;;21.45;31.32;98945.91;5020319;28;20259;-83
2021/05/18 15:13:13;;;;;;;1.80;0.40;;;;;;;21.44;31.38;98957.91;5001695;28;20228;-83
2021/05/18 15:15:40;;;;;;;0.70;0.30;;;;;;;21.23;31.63;98955.97;5016941;28;20296;-81
2021/05/18 15:18:08;;;;;;;0.50;0.30;;;;;;;21.13;31.91;98965.16;5018679;28;20732;-83
2021/05/18 15:20:38;;;;;;;1.40;0.20;;;;;;;20.73;33.16;98960.47;5030123;28;20225;-81
2021/05/18 15:23:05;;;;;;;0.30;0.30;;;;;;;20.25;34.82;98965.44;5010950;28;20225;-81
2021/05/18 15:25:32;;;;;;;1.50;0.20;;;;;;;19.79;36.99;98969.69;5034993;28;20266;-84
2021/05/18 15:28:00;;;;;;;0.93;0.30;;;;;;;19.33;38.15;98972.25;5018826;28;20245;-81
2021/05/18 15:30:27;;;;;;;0.70;0.30;;;;;;;19.21;38.38;98977.31;5035810;28;20648;-80
2021/05/18 15:32:54;;;;;;;0.30;0.30;;;;;;;18.73;39.15;98983.84;5036320;28;20227;-80
2021/05/18 15:35:21;;;;;;;0.33;0.30;;;;;;;18.91;39.39;98978.47;5017831;28;20703;-81
2021/05/18 15:37:48;;;;;;;0.20;0.20;;;;;;;19.00;40.36;98988.69;5018766;28;20592;-82
2021/05/18 15:40:15;;;;;;;0.40;0.30;;;;;;;18.85;41.03;98981.53;5002811;28;20237;-81
2021/05/18 15:42:42;;;;;;;0.60;0.40;;;;;;;18.76;42.27;98975.13;4984140;28;20639;-80
2021/05/18 15:45:09;;;;;;;0.43;0.40;;;;;;;18.61;41.62;98980.72;4999868;28;20543;-81
2021/05/18 15:47:37;;;;;;;0.73;0.67;;;;;;;18.70;41.75;98968.16;5024460;28;20277;-81
2021/05/18 15:50:05;;;;;;;0.33;0.33;;;;;;;18.61;41.68;98981.53;5036073;28;20253;-83
2021/05/18 15:52:32;;;;;;;0.50;0.40;;;;;;;18.48;41.93;98991.13;5019699;28;20237;-80
2021/05/18 15:54:58;;;;;;;0.90;0.43;;;;;;;18.64;41.75;98980.97;5035522;28;20284;-80
2021/05/18 15:57:25;;;;;;;0.30;0.30;;;;;;;18.61;40.82;98988.88;4983779;28;20536;-84
2021/05/18 15:59:53;;;;;;;0.80;0.30;;;;;;;18.39;41.69;98973.84;5013492;28;20638;-80
2021/05/18 16:02:20;;;;;;;1.43;0.40;;;;;;;18.57;41.83;98968.84;5018332;28;21043;-80
2021/05/18 16:04:47;;;;;;;0.97;0.37;;;;;;;18.72;41.68;98968.66;5013146;28;20219;-80
2021/05/18 16:07:18;;;;;;;0.70;0.30;;;;;;;18.77;41.70;98977.56;5000044;28;20658;-80
2021/05/18 16:09:45;;;;;;;1.10;0.40;;;;;;;18.72;42.46;98974.09;4998361;28;20240;-79
2021/05/18 16:12:14;;;;;;;0.53;0.47;;;;;;;18.74;43.33;98974.63;5018647;28;20630;-81
2021/05/18 16:14:41;;;;;;;1.17;0.40;;;;;;;18.66;43.25;98976.06;5002921;28;20573;-81
2021/05/18 16:17:08;;;;;;;1.10;0.50;;;;;;;18.51;44.42;98986.22;5035727;28;20222;-80
2021/05/18 16:19:35;;;;;;;0.47;0.47;;;;;;;18.28;44.42;98975.06;5019059;28;20229;-80
2021/05/18 16:22:03;;;;;;;0.50;0.43;;;;;;;18.30;44.60;98974.75;5001421;28;20225;-82
2021/05/18 16:24:33;;;;;;;1.10;0.37;;;;;;;18.27;44.40;98964.50;5000233;28;20376;-80
2021/05/18 16:27:00;;;;;;;0.40;0.40;;;;;;;18.27;44.06;98959.06;4988294;28;20631;-81
2021/05/18 16:29:30;;;;;;;0.93;0.50;;;;;;;18.02;44.16;98962.81;4976520;28;20533;-79
2021/05/18 16:31:57;;;;;;;1.23;0.50;;;;;;;17.89;44.78;98985.13;5018977;28;20273;-80
2021/05/18 16:34:27;;;;;;;0.43;0.40;;;;;;;17.63;45.83;98960.13;5018118;28;20292;-82
2021/05/18 16:36:53;;;;;;;0.47;0.40;;;;;;;17.79;45.96;98971.66;5035290;28;20222;-81
2021/05/18 16:39:23;;;;;;;0.63;0.50;;;;;;;17.68;45.82;98972.84;5035397;28;20313;-80
2021/05/18 16:41:52;;;;;;;0.70;0.50;;;;;;;17.64;46.46;98971.78;5036186;28;20238;-80
2021/05/18 16:44:19;;;;;;;0.90;0.50;;;;;;;17.62;46.55;98974.78;5034644;28;20226;-83